createdAt,value
2017-05-31T00:02:12.268Z,2.94
2017-05-31T00:04:39.800Z,3.46
2017-05-31T00:07:07.318Z,3.94
2017-05-31T00:09:34.863Z,3.60
2017-05-31T00:12:02.383Z,3.88
2017-05-31T00:14:29.939Z,3.38
2017-05-31T00:16:57.481Z,4.22
2017-05-31T00:19:25.042Z,3.32
2017-05-31T00:21:52.601Z,3.56
2017-05-31T00:24:20.137Z,3.82
2017-05-31T00:26:47.684Z,4.08
2017-05-31T00:29:15.220Z,4.22
2017-05-31T00:31:42.802Z,3.72
2017-05-31T00:34:10.329Z,3.52
2017-05-31T00:36:37.916Z,3.32
2017-05-31T00:39:05.526Z,3.74
2017-05-31T00:41:33.122Z,4.42
2017-05-31T00:44:00.652Z,3.50
2017-05-31T00:46:28.255Z,3.12
2017-05-31T00:48:55.862Z,2.82
2017-05-31T00:51:23.508Z,4.02
2017-05-31T00:53:51.032Z,3.52
2017-05-31T00:56:18.567Z,3.10
2017-05-31T00:58:46.130Z,3.58
2017-05-31T01:01:13.679Z,3.18
2017-05-31T01:03:41.214Z,3.58
2017-05-31T01:06:08.771Z,4.30
2017-05-31T01:08:36.396Z,3.50
2017-05-31T01:11:03.972Z,3.06
2017-05-31T01:13:31.571Z,3.60
2017-05-31T01:15:59.047Z,3.66
2017-05-31T01:18:26.592Z,3.40
2017-05-31T01:20:54.108Z,3.74
2017-05-31T01:23:21.689Z,3.48
2017-05-31T01:25:49.207Z,4.38
2017-05-31T01:28:16.731Z,4.10
2017-05-31T01:30:44.291Z,3.42
2017-05-31T01:33:11.807Z,3.42
2017-05-31T01:35:39.704Z,3.18
2017-05-31T01:38:07.219Z,3.12
2017-05-31T01:40:34.757Z,3.52
2017-05-31T01:43:02.308Z,3.68
2017-05-31T01:45:29.823Z,3.56
2017-05-31T01:47:57.372Z,3.12
2017-05-31T01:50:24.895Z,3.32
2017-05-31T01:52:52.405Z,3.30
2017-05-31T01:55:19.938Z,3.64
2017-05-31T01:57:47.460Z,3.50
2017-05-31T02:00:15.000Z,3.46
2017-05-31T02:02:42.637Z,3.40
2017-05-31T02:05:10.204Z,3.58
2017-05-31T02:07:37.804Z,3.14
2017-05-31T02:10:05.392Z,3.58
2017-05-31T02:12:32.988Z,3.20
2017-05-31T02:15:00.519Z,4.24
2017-05-31T02:17:28.088Z,3.48
2017-05-31T02:19:55.600Z,3.10
2017-05-31T02:22:23.173Z,3.40
2017-05-31T02:24:50.691Z,5.44
2017-05-31T02:27:18.359Z,3.42
2017-05-31T02:29:45.912Z,3.62
2017-05-31T02:32:13.479Z,3.14
2017-05-31T02:34:41.040Z,3.20
2017-05-31T02:37:08.636Z,3.40
2017-05-31T02:39:36.155Z,3.86
2017-05-31T02:42:03.707Z,3.98
2017-05-31T02:44:31.242Z,3.64
2017-05-31T02:46:58.849Z,3.86
2017-05-31T02:49:26.472Z,3.58
2017-05-31T02:51:54.135Z,2.68
2017-05-31T02:54:21.658Z,3.34
2017-05-31T02:56:49.243Z,3.60
2017-05-31T02:59:16.866Z,3.12
2017-05-31T03:01:44.402Z,3.70
2017-05-31T03:04:12.022Z,4.52
2017-05-31T03:06:39.591Z,3.38
2017-05-31T03:09:07.248Z,3.38
2017-05-31T03:11:34.811Z,4.76
2017-05-31T03:14:02.416Z,5.74
2017-05-31T03:16:29.932Z,3.58
2017-05-31T03:18:57.459Z,2.48
2017-05-31T03:21:25.036Z,3.92
2017-05-31T03:23:52.619Z,4.38
2017-05-31T03:26:20.268Z,3.78
2017-05-31T03:28:47.791Z,3.42
2017-05-31T03:31:15.323Z,4.04
2017-05-31T03:33:42.927Z,3.38
2017-05-31T03:36:10.454Z,3.76
2017-05-31T03:38:38.055Z,3.44
2017-05-31T03:41:05.571Z,4.56
2017-05-31T03:43:33.099Z,4.48
2017-05-31T03:46:00.632Z,3.50
2017-05-31T03:48:28.141Z,3.92
2017-05-31T03:50:55.693Z,3.64
2017-05-31T03:53:23.220Z,3.54
2017-05-31T03:55:51.099Z,3.60
2017-05-31T03:58:18.723Z,3.96
2017-05-31T04:00:46.248Z,4.58
2017-05-31T04:03:13.846Z,4.02
2017-05-31T04:05:41.436Z,3.92
2017-05-31T04:08:08.999Z,4.70
2017-05-31T04:10:36.526Z,4.30
2017-05-31T04:13:04.040Z,4.00
2017-05-31T04:15:31.624Z,3.80
2017-05-31T04:17:59.160Z,3.76
2017-05-31T04:20:26.800Z,4.02
2017-05-31T04:22:54.331Z,3.70
2017-05-31T04:25:21.848Z,3.46
2017-05-31T04:27:49.424Z,5.04
2017-05-31T04:30:16.959Z,3.70
2017-05-31T04:32:44.861Z,3.60
2017-05-31T04:35:12.395Z,3.38
2017-05-31T04:37:39.963Z,4.16
2017-05-31T04:40:07.515Z,4.70
2017-05-31T04:42:35.076Z,4.16
2017-05-31T04:45:02.692Z,3.96
2017-05-31T04:47:30.228Z,3.98
2017-05-31T04:49:57.775Z,3.34
2017-05-31T04:52:25.387Z,3.76
2017-05-31T04:54:52.936Z,4.66
2017-05-31T04:57:20.532Z,4.04
2017-05-31T04:59:48.067Z,3.24
2017-05-31T05:02:15.636Z,3.50
2017-05-31T05:04:43.167Z,4.22
2017-05-31T05:07:10.708Z,3.58
2017-05-31T05:09:38.368Z,3.08
2017-05-31T05:12:05.927Z,3.70
2017-05-31T05:14:33.517Z,4.42
2017-05-31T05:17:01.035Z,3.42
2017-05-31T05:19:28.614Z,3.42
2017-05-31T05:21:56.141Z,3.38
2017-05-31T05:24:23.934Z,3.28
2017-05-31T05:26:51.500Z,3.30
2017-05-31T05:29:19.032Z,2.98
2017-05-31T05:31:46.587Z,3.04
2017-05-31T05:34:14.132Z,3.62
2017-05-31T05:36:41.707Z,3.30
2017-05-31T05:39:09.268Z,3.88
2017-05-31T05:41:36.880Z,3.24
2017-05-31T05:44:04.391Z,3.10
2017-05-31T05:46:31.936Z,3.30
2017-05-31T05:48:59.516Z,3.34
2017-05-31T05:51:27.063Z,3.10
2017-05-31T05:53:54.635Z,3.18
2017-05-31T05:56:22.164Z,3.22
2017-05-31T05:58:49.792Z,3.56
2017-05-31T06:01:17.317Z,2.90
2017-05-31T06:03:44.856Z,3.40
2017-05-31T06:06:12.419Z,3.96
2017-05-31T06:08:39.939Z,5.74
2017-05-31T06:11:07.619Z,4.60
2017-05-31T06:13:37.213Z,3.32
2017-05-31T06:16:04.967Z,3.34
2017-05-31T06:18:32.524Z,3.28
2017-05-31T06:21:00.051Z,3.88
2017-05-31T06:23:27.678Z,4.12
2017-05-31T06:25:55.215Z,3.36
2017-05-31T06:28:22.783Z,4.02
2017-05-31T06:30:50.319Z,3.92
2017-05-31T06:33:17.954Z,4.62
2017-05-31T06:35:45.587Z,4.70
2017-05-31T06:38:13.140Z,4.58
2017-05-31T06:40:40.738Z,4.14
2017-05-31T06:43:08.316Z,4.54
2017-05-31T06:45:36.180Z,4.38
2017-05-31T06:48:03.711Z,4.12
2017-05-31T06:50:31.251Z,3.02
2017-05-31T06:52:58.848Z,3.94
2017-05-31T06:55:26.379Z,4.02
2017-05-31T06:57:53.968Z,3.98
2017-05-31T07:00:21.559Z,5.86
2017-05-31T07:02:49.127Z,5.48
2017-05-31T07:05:16.640Z,5.34
2017-05-31T07:07:44.160Z,5.34
2017-05-31T07:10:11.781Z,5.40
2017-05-31T07:12:39.376Z,5.50
2017-05-31T07:15:06.971Z,5.34
2017-05-31T07:17:34.549Z,5.54
2017-05-31T07:20:02.084Z,6.52
2017-05-31T07:22:29.727Z,7.22
2017-05-31T07:24:57.289Z,6.52
2017-05-31T07:27:24.907Z,6.32
2017-05-31T07:29:52.423Z,7.46
2017-05-31T07:32:19.956Z,7.56
2017-05-31T07:34:47.528Z,7.72
2017-05-31T07:37:15.047Z,7.34
2017-05-31T07:39:42.637Z,6.88
2017-05-31T07:42:10.173Z,7.28
2017-05-31T07:44:37.711Z,7.42
2017-05-31T07:47:05.240Z,6.88
2017-05-31T07:49:32.797Z,5.80
2017-05-31T07:52:00.335Z,6.22
2017-05-31T07:54:27.924Z,5.92
2017-05-31T07:56:55.439Z,6.02
2017-05-31T07:59:23.028Z,6.46
2017-05-31T08:01:50.568Z,6.94
2017-05-31T08:04:18.101Z,5.98
2017-05-31T08:06:45.659Z,5.90
2017-05-31T08:09:13.176Z,5.98
2017-05-31T08:11:40.719Z,5.84
2017-05-31T08:14:08.261Z,6.80
2017-05-31T08:16:35.836Z,6.80
2017-05-31T08:19:03.368Z,6.32
2017-05-31T08:21:30.922Z,7.00
2017-05-31T08:23:58.491Z,7.96
2017-05-31T08:26:26.020Z,6.42
2017-05-31T08:28:53.577Z,6.54
2017-05-31T08:31:21.091Z,7.00
2017-05-31T08:33:48.651Z,7.96
2017-05-31T08:36:16.191Z,8.18
2017-05-31T08:38:43.781Z,7.06
2017-05-31T08:41:11.308Z,8.52
2017-05-31T08:43:38.831Z,7.26
2017-05-31T08:46:06.425Z,9.04
2017-05-31T08:48:33.939Z,8.90
2017-05-31T08:51:01.524Z,9.30
2017-05-31T08:53:29.048Z,10.74
2017-05-31T08:55:56.608Z,9.20
2017-05-31T08:58:24.136Z,10.10
2017-05-31T09:00:51.728Z,10.70
2017-05-31T09:03:19.243Z,9.56
2017-05-31T09:05:46.774Z,9.84
2017-05-31T09:08:14.772Z,9.70
2017-05-31T09:10:42.292Z,9.72
2017-05-31T09:13:09.938Z,10.04
2017-05-31T09:15:37.468Z,9.66
2017-05-31T09:18:05.039Z,10.76
2017-05-31T09:20:32.601Z,11.08
2017-05-31T09:23:00.147Z,9.24
2017-05-31T09:25:27.683Z,8.74
2017-05-31T09:27:55.256Z,9.06
2017-05-31T09:30:22.774Z,8.30
2017-05-31T09:32:50.313Z,8.70
2017-05-31T09:35:17.907Z,7.42
2017-05-31T09:37:45.427Z,7.84
2017-05-31T09:40:12.999Z,7.84
2017-05-31T09:42:40.513Z,6.76
2017-05-31T09:45:08.037Z,7.44
2017-05-31T09:47:35.612Z,6.16
2017-05-31T09:50:03.120Z,6.64
2017-05-31T09:52:30.645Z,6.82
2017-05-31T09:54:58.192Z,7.24
2017-05-31T09:57:25.719Z,7.30
2017-05-31T09:59:53.267Z,6.34
2017-05-31T10:02:20.859Z,5.32
2017-05-31T10:04:48.439Z,6.64
2017-05-31T10:07:16.075Z,6.80
2017-05-31T10:09:43.649Z,6.28
2017-05-31T10:12:11.178Z,5.60
2017-05-31T10:14:38.720Z,4.96
2017-05-31T10:17:06.279Z,4.52
2017-05-31T10:19:33.831Z,4.82
2017-05-31T10:22:01.384Z,4.70
2017-05-31T10:24:28.903Z,4.34
2017-05-31T10:26:56.482Z,3.64
2017-05-31T10:29:24.116Z,3.36
2017-05-31T10:31:51.652Z,4.90
2017-05-31T10:34:19.259Z,4.52
2017-05-31T10:36:46.872Z,5.00
2017-05-31T10:39:14.487Z,4.54
2017-05-31T10:41:42.029Z,4.36
2017-05-31T10:44:09.619Z,4.50
2017-05-31T10:46:37.240Z,3.34
2017-05-31T10:49:04.764Z,5.52
2017-05-31T10:51:32.342Z,4.54
2017-05-31T10:53:59.888Z,4.18
2017-05-31T10:56:27.419Z,6.88
2017-05-31T10:58:55.039Z,4.60
2017-05-31T11:01:22.571Z,4.36
2017-05-31T11:03:50.167Z,5.06
2017-05-31T11:06:17.694Z,5.02
2017-05-31T11:08:45.273Z,5.62
2017-05-31T11:11:12.830Z,4.66
2017-05-31T11:13:40.366Z,5.30
2017-05-31T11:16:07.919Z,5.68
2017-05-31T11:18:35.515Z,4.74
2017-05-31T11:21:03.085Z,3.96
2017-05-31T11:23:30.615Z,4.14
2017-05-31T11:25:58.140Z,4.30
2017-05-31T11:28:25.704Z,3.88
2017-05-31T11:30:53.222Z,3.82
2017-05-31T11:33:20.803Z,4.36
2017-05-31T11:35:48.328Z,3.56
2017-05-31T11:38:15.874Z,4.30
2017-05-31T11:40:43.431Z,3.62
2017-05-31T11:43:10.976Z,3.66
2017-05-31T11:45:38.523Z,4.82
2017-05-31T11:48:06.040Z,4.18
2017-05-31T11:50:33.630Z,10.92
2017-05-31T11:53:01.156Z,4.42
2017-05-31T11:55:28.691Z,3.52
2017-05-31T11:57:56.260Z,3.94
2017-05-31T12:00:23.872Z,3.98
2017-05-31T12:02:51.416Z,3.00
2017-05-31T12:05:18.930Z,4.48
2017-05-31T12:07:46.631Z,3.76
2017-05-31T12:10:14.268Z,3.66
2017-05-31T12:12:41.825Z,3.78
2017-05-31T12:15:09.411Z,3.86
2017-05-31T12:17:36.943Z,4.52
2017-05-31T12:20:04.564Z,3.30
2017-05-31T12:22:32.088Z,3.88
2017-05-31T12:24:59.763Z,2.82
2017-05-31T12:27:27.289Z,2.80
2017-05-31T12:29:54.916Z,3.58
2017-05-31T12:32:22.452Z,3.02
2017-05-31T12:34:49.999Z,3.40
2017-05-31T12:37:17.540Z,2.84
2017-05-31T12:39:45.119Z,2.82
2017-05-31T12:42:12.676Z,2.88
2017-05-31T12:44:40.203Z,2.48
2017-05-31T12:47:07.779Z,2.80
2017-05-31T12:49:35.299Z,2.82
2017-05-31T12:52:02.883Z,3.20
2017-05-31T12:54:30.440Z,2.50
2017-05-31T12:56:57.992Z,3.40
2017-05-31T12:59:25.545Z,2.70
2017-05-31T13:01:53.073Z,2.56
2017-05-31T13:04:20.767Z,2.60
2017-05-31T13:06:48.287Z,2.62
2017-05-31T13:09:15.807Z,2.62
2017-05-31T13:11:43.380Z,2.16
2017-05-31T13:14:10.904Z,2.78
2017-05-31T13:16:38.452Z,2.98
2017-05-31T13:19:05.982Z,2.96
2017-05-31T13:21:33.544Z,2.64
2017-05-31T13:24:01.060Z,1.86
2017-05-31T13:26:28.656Z,2.02
2017-05-31T13:28:56.195Z,2.32
2017-05-31T13:31:23.832Z,2.24
2017-05-31T13:33:51.463Z,2.06
2017-05-31T13:36:18.995Z,1.74
2017-05-31T13:38:46.569Z,1.74
2017-05-31T13:41:14.107Z,2.00
2017-05-31T13:43:41.620Z,2.10
2017-05-31T13:46:09.186Z,2.20
2017-05-31T13:48:36.729Z,2.34
2017-05-31T13:51:04.275Z,2.46
2017-05-31T13:53:31.844Z,3.00
2017-05-31T13:55:59.407Z,2.64
2017-05-31T13:58:27.006Z,2.70
2017-05-31T14:00:54.640Z,2.22
2017-05-31T14:03:22.169Z,3.02
2017-05-31T14:05:49.799Z,3.74
2017-05-31T14:08:17.338Z,4.74
2017-05-31T14:10:44.863Z,2.72
2017-05-31T14:13:12.412Z,2.84
2017-05-31T14:15:39.933Z,2.70
2017-05-31T14:18:07.486Z,2.24
2017-05-31T14:20:35.051Z,2.76
2017-05-31T14:23:02.616Z,2.04
2017-05-31T14:25:30.164Z,2.48
2017-05-31T14:27:57.697Z,8.14
2017-05-31T14:30:25.254Z,3.40
2017-05-31T14:32:52.771Z,3.14
2017-05-31T14:35:20.346Z,5.48
2017-05-31T14:37:47.911Z,10.18
2017-05-31T14:40:15.447Z,2.22
2017-05-31T14:42:43.002Z,2.36
2017-05-31T14:45:10.532Z,2.00
2017-05-31T14:47:38.113Z,3.56
2017-05-31T14:50:05.660Z,2.30
2017-05-31T14:52:33.181Z,2.02
2017-05-31T14:55:00.744Z,2.10
2017-05-31T14:57:28.276Z,2.38
2017-05-31T14:59:55.858Z,2.66
2017-05-31T15:02:23.388Z,2.62
2017-05-31T15:04:50.913Z,2.74
2017-05-31T15:07:18.455Z,2.30
2017-05-31T15:09:45.993Z,2.60
2017-05-31T15:12:13.545Z,2.56
2017-05-31T15:14:41.074Z,2.50
2017-05-31T15:17:08.647Z,2.98
2017-05-31T15:19:36.176Z,3.00
2017-05-31T15:22:03.691Z,3.64
2017-05-31T15:24:31.262Z,2.38
2017-05-31T15:26:58.784Z,2.28
2017-05-31T15:29:26.328Z,2.82
2017-05-31T15:31:53.846Z,2.36
2017-05-31T15:34:21.416Z,2.28
2017-05-31T15:36:48.950Z,3.40
2017-05-31T15:39:16.511Z,2.50
2017-05-31T15:41:44.088Z,1.96
2017-05-31T15:44:11.613Z,2.28
2017-05-31T15:46:39.128Z,1.84
2017-05-31T15:49:06.679Z,2.72
2017-05-31T15:51:34.204Z,2.06
2017-05-31T15:54:01.791Z,4.42
2017-05-31T15:56:29.322Z,2.68
2017-05-31T15:58:56.857Z,2.88
2017-05-31T16:01:24.411Z,4.14
2017-05-31T16:03:51.933Z,4.98
2017-05-31T16:06:19.492Z,2.40
2017-05-31T16:08:47.032Z,2.40
2017-05-31T16:11:14.653Z,4.94
2017-05-31T16:13:42.243Z,2.98
2017-05-31T16:16:09.756Z,2.78
2017-05-31T16:18:37.373Z,2.20
2017-05-31T16:21:04.961Z,2.20
2017-05-31T16:23:32.558Z,2.22
2017-05-31T16:26:00.068Z,2.18
2017-05-31T16:28:27.682Z,2.50
2017-05-31T16:30:55.211Z,2.88
2017-05-31T16:33:22.855Z,4.70
2017-05-31T16:35:50.499Z,3.98
2017-05-31T16:38:18.071Z,2.42
2017-05-31T16:40:45.726Z,2.20
2017-05-31T16:43:13.243Z,2.22
2017-05-31T16:45:40.820Z,1.90
2017-05-31T16:48:08.381Z,2.16
2017-05-31T16:50:35.935Z,2.18
2017-05-31T16:53:03.498Z,2.02
2017-05-31T16:55:31.023Z,2.28
2017-05-31T16:57:58.579Z,2.28
2017-05-31T17:00:26.130Z,2.50
2017-05-31T17:02:53.663Z,2.30
2017-05-31T17:05:21.215Z,2.90
2017-05-31T17:07:48.739Z,2.52
2017-05-31T17:10:16.281Z,2.40
2017-05-31T17:12:43.836Z,2.02
2017-05-31T17:15:11.379Z,2.60
2017-05-31T17:17:39.004Z,2.10
2017-05-31T17:20:06.539Z,3.30
2017-05-31T17:22:34.083Z,3.38
2017-05-31T17:25:01.650Z,2.40
2017-05-31T17:27:29.196Z,2.62
2017-05-31T17:29:56.771Z,2.44
2017-05-31T17:32:24.317Z,2.40
2017-05-31T17:34:52.714Z,3.06
2017-05-31T17:37:20.370Z,2.74
2017-05-31T17:39:47.926Z,3.38
2017-05-31T17:42:15.518Z,3.12
2017-05-31T17:44:43.061Z,4.22
2017-05-31T17:47:10.579Z,4.40
2017-05-31T17:49:38.148Z,3.10
2017-05-31T17:52:05.670Z,3.60
2017-05-31T17:54:33.227Z,4.03
2017-05-31T17:57:00.770Z,3.96
2017-05-31T17:59:28.394Z,3.60
2017-05-31T18:01:56.008Z,3.64
2017-05-31T18:04:23.587Z,3.08
2017-05-31T18:06:51.148Z,3.86
2017-05-31T18:09:18.694Z,4.42
2017-05-31T18:11:46.275Z,3.30
2017-05-31T18:14:13.822Z,3.46
2017-05-31T18:16:41.394Z,3.76
2017-05-31T18:19:08.936Z,3.20
2017-05-31T18:21:36.467Z,3.78
2017-05-31T18:24:04.019Z,5.60
2017-05-31T18:26:31.543Z,2.96
2017-05-31T18:28:59.314Z,2.88
2017-05-31T18:31:26.832Z,3.64
2017-05-31T18:33:54.365Z,3.26
2017-05-31T18:36:21.932Z,2.72
2017-05-31T18:38:49.460Z,2.88
2017-05-31T18:41:17.057Z,2.92
2017-05-31T18:43:44.647Z,3.18
2017-05-31T18:46:12.252Z,3.08
2017-05-31T18:48:39.812Z,2.86
2017-05-31T18:51:07.335Z,3.32
2017-05-31T18:53:34.932Z,2.48
2017-05-31T18:56:02.459Z,3.36
2017-05-31T18:58:30.018Z,3.30
2017-05-31T19:00:57.557Z,3.82
2017-05-31T19:03:25.116Z,3.10
2017-05-31T19:05:52.699Z,3.74
2017-05-31T19:08:20.291Z,3.22
2017-05-31T19:10:47.829Z,3.72
2017-05-31T19:13:15.352Z,3.38
2017-05-31T19:15:42.915Z,3.38
2017-05-31T19:18:10.631Z,13.68
2017-05-31T19:20:38.183Z,10.12
2017-05-31T19:23:05.719Z,7.34
2017-05-31T19:25:33.329Z,3.97
2017-05-31T19:28:00.866Z,3.28
2017-05-31T19:30:28.413Z,3.38
2017-05-31T19:32:55.984Z,4.48
2017-05-31T19:35:23.507Z,3.60
2017-05-31T19:37:51.105Z,4.00
2017-05-31T19:40:18.644Z,4.32
2017-05-31T19:42:46.202Z,3.56
2017-05-31T19:45:13.751Z,3.62
2017-05-31T19:47:41.336Z,3.02
2017-05-31T19:50:08.931Z,3.86
2017-05-31T19:52:36.535Z,11.27
2017-05-31T19:55:04.083Z,7.28
2017-05-31T19:57:31.755Z,4.08
2017-05-31T19:59:59.312Z,2.80
2017-05-31T20:02:26.864Z,4.08
2017-05-31T20:04:54.795Z,3.62
2017-05-31T20:07:22.345Z,3.56
2017-05-31T20:09:49.872Z,3.64
2017-05-31T20:12:17.427Z,3.76
2017-05-31T20:14:44.965Z,3.67
2017-05-31T20:17:13.138Z,3.78
2017-05-31T20:19:40.791Z,3.58
2017-05-31T20:22:08.421Z,4.14
2017-05-31T20:24:35.979Z,3.70
2017-05-31T20:27:03.511Z,3.34
2017-05-31T20:29:31.131Z,5.04
2017-05-31T20:31:58.770Z,4.16
2017-05-31T20:34:26.375Z,3.64
2017-05-31T20:36:53.896Z,4.80
2017-05-31T20:39:21.482Z,4.04
2017-05-31T20:41:48.998Z,3.62
2017-05-31T20:44:16.511Z,3.92
2017-05-31T20:46:44.070Z,4.06
2017-05-31T20:49:11.604Z,3.72
2017-05-31T20:51:39.156Z,4.44
2017-05-31T20:54:06.688Z,3.94
2017-05-31T20:56:34.277Z,4.16
2017-05-31T20:59:01.796Z,3.93
2017-05-31T21:01:29.327Z,4.56
2017-05-31T21:03:56.924Z,3.84
2017-05-31T21:06:24.464Z,4.00
2017-05-31T21:08:51.991Z,4.12
2017-05-31T21:11:19.599Z,3.44
2017-05-31T21:13:47.162Z,3.70
2017-05-31T21:16:14.679Z,3.80
2017-05-31T21:18:42.238Z,3.70
2017-05-31T21:21:09.777Z,4.64
2017-05-31T21:23:37.377Z,4.88
2017-05-31T21:26:04.913Z,3.92
2017-05-31T21:28:32.479Z,3.32
2017-05-31T21:31:00.570Z,3.92
2017-05-31T21:33:28.253Z,3.98
2017-05-31T21:35:56.947Z,3.90
2017-05-31T21:38:25.041Z,3.98
2017-05-31T21:40:52.632Z,3.86
2017-05-31T21:43:23.820Z,3.72
2017-05-31T21:45:56.303Z,3.80
2017-05-31T21:48:27.108Z,3.70
2017-05-31T21:50:54.683Z,3.72
2017-05-31T21:53:22.211Z,3.42
2017-05-31T21:55:49.739Z,3.46
2017-05-31T21:58:19.925Z,2.96
2017-05-31T22:00:47.655Z,3.20
2017-05-31T22:03:15.207Z,3.20
2017-05-31T22:05:42.806Z,3.52
2017-05-31T22:08:10.458Z,3.38
2017-05-31T22:10:37.987Z,3.82
2017-05-31T22:13:05.763Z,3.20
2017-05-31T22:15:33.475Z,3.40
2017-05-31T22:18:01.023Z,3.22
2017-05-31T22:20:28.568Z,3.52
2017-05-31T22:22:56.095Z,3.12
2017-05-31T22:25:23.771Z,3.44
2017-05-31T22:27:51.292Z,3.44
2017-05-31T22:30:21.199Z,3.14
2017-05-31T22:32:49.194Z,2.86
2017-05-31T22:35:17.716Z,3.20
2017-05-31T22:37:46.395Z,3.52
2017-05-31T22:40:13.921Z,3.20
2017-05-31T22:42:41.465Z,3.48
2017-05-31T22:45:09.282Z,2.80
2017-05-31T22:47:36.853Z,3.06
2017-05-31T22:50:04.387Z,3.56
2017-05-31T22:52:35.527Z,2.60
2017-05-31T22:55:03.050Z,3.74
2017-05-31T22:57:30.591Z,2.96
2017-05-31T22:59:58.120Z,2.72
2017-05-31T23:02:25.719Z,2.74
2017-05-31T23:04:53.244Z,3.18
2017-05-31T23:07:20.787Z,3.40
2017-05-31T23:09:48.397Z,3.10
2017-05-31T23:12:15.924Z,3.00
2017-05-31T23:14:43.492Z,3.54
2017-05-31T23:17:11.012Z,3.28
2017-05-31T23:19:38.529Z,3.30
2017-05-31T23:22:06.100Z,2.72
2017-05-31T23:24:33.614Z,3.10
2017-05-31T23:27:01.180Z,3.72
2017-05-31T23:29:28.691Z,2.96
2017-05-31T23:31:56.215Z,3.24
2017-05-31T23:34:23.765Z,3.12
2017-05-31T23:36:51.292Z,3.12
2017-05-31T23:39:18.851Z,3.38
2017-05-31T23:41:46.373Z,2.98
2017-05-31T23:44:13.896Z,3.50
2017-05-31T23:46:41.444Z,3.36
2017-05-31T23:49:08.959Z,3.06
2017-05-31T23:51:36.644Z,3.00
2017-05-31T23:54:04.219Z,3.34
2017-05-31T23:56:31.952Z,3.30
2017-05-31T23:58:59.511Z,4.02
